Providence, Rhode Island
Traffic Map
Current Weather Conditions
Providence, Rhode Island
Broken Clouds
Broken Clouds

Feels Like: 5°
Wind Chill: Ceiling: 10000
Heat Index: Visibility: 10mi
Dew Point: Wind: 8mph
Humidity: 71% Direction: 30° (NNE)
Pressure: 30.17in Gusts: 0mph
Raw Report DataKPVD 251251Z 03007KT 10SM BKN100 07/02 A3017 RMK AO2 RAE15 SLP217 P0000 T00720022
Traffic Incident Summary
Active as of:
Severity:
Category:
InformationThere was an issue retrieving the traffic information for this location. Please try a different location or try again shortly.
Advertisements
Track Severe Weather on mobile